createdAt,value
2019-04-23T00:06:06.667Z,5.57
2019-04-23T00:16:30.258Z,4.80
2019-04-23T00:22:05.598Z,4.77
2019-04-23T00:28:10.079Z,5.50
2019-04-23T00:39:06.002Z,5.40
2019-04-23T00:56:32.655Z,4.63
2019-04-23T01:01:26.491Z,4.63
2019-04-23T01:06:29.158Z,2.23
2019-04-23T01:11:57.923Z,4.57
2019-04-23T01:17:02.761Z,4.23
2019-04-23T01:22:14.570Z,4.53
2019-04-23T01:27:51.135Z,4.03
2019-04-23T01:32:59.472Z,5.00
2019-04-23T01:37:58.002Z,3.90
2019-04-23T01:43:05.711Z,4.50
2019-04-23T01:48:11.087Z,4.33
2019-04-23T01:53:24.723Z,4.17
2019-04-23T01:58:32.231Z,4.57
2019-04-23T02:03:43.436Z,3.87
2019-04-23T02:20:30.205Z,3.80
2019-04-23T02:31:15.428Z,2.70
2019-04-23T02:46:05.559Z,2.83
2019-04-23T02:51:12.555Z,4.23
2019-04-23T03:06:48.076Z,4.83
2019-04-23T03:16:56.424Z,4.63
2019-04-23T03:22:06.025Z,4.70
2019-04-23T03:42:38.752Z,4.57
2019-04-23T03:47:56.216Z,5.17
2019-04-23T03:52:54.818Z,3.67
2019-04-23T03:58:05.260Z,3.90
2019-04-23T04:08:18.437Z,4.83
2019-04-23T04:13:22.808Z,4.13
2019-04-23T04:23:37.648Z,3.30
2019-04-23T04:28:44.600Z,5.00
2019-04-23T04:33:50.981Z,4.87
2019-04-23T04:43:50.787Z,5.33
2019-04-23T04:49:10.492Z,5.20
2019-04-23T04:54:03.234Z,5.27
2019-04-23T05:04:05.566Z,5.03
2019-04-23T05:09:15.968Z,5.20
2019-04-23T05:19:29.423Z,5.23
2019-04-23T05:29:25.380Z,5.57
2019-04-23T05:34:38.220Z,4.90
2019-04-23T05:44:43.185Z,5.13
2019-04-23T05:49:47.647Z,5.27
2019-04-23T05:59:54.739Z,6.10
2019-04-23T06:04:57.283Z,4.77
2019-04-23T06:10:04.959Z,5.10
2019-04-23T06:25:33.678Z,5.30
2019-04-23T06:30:26.152Z,4.87
2019-04-23T06:35:23.814Z,5.00
2019-04-23T06:45:32.068Z,5.03
2019-04-23T06:50:41.478Z,4.87
2019-04-23T06:55:46.568Z,4.87
2019-04-23T07:00:51.284Z,3.30
2019-04-23T07:16:27.711Z,4.60
2019-04-23T07:21:23.556Z,4.87
2019-04-23T07:26:34.866Z,4.50
2019-04-23T07:36:34.220Z,4.60
2019-04-23T07:42:03.540Z,4.90
2019-04-23T07:47:33.094Z,4.87
2019-04-23T07:52:36.951Z,4.83
2019-04-23T07:57:52.092Z,4.93
2019-04-23T08:02:35.825Z,4.70
2019-04-23T08:07:45.694Z,4.67
2019-04-23T08:12:46.994Z,4.50
2019-04-23T08:17:45.086Z,4.37
2019-04-23T08:22:55.004Z,4.50
2019-04-23T08:28:12.054Z,4.90
2019-04-23T08:33:08.452Z,4.43
2019-04-23T08:43:36.737Z,4.40
2019-04-23T08:48:34.190Z,4.90
2019-04-23T08:58:35.351Z,4.33
2019-04-23T09:03:42.473Z,3.77
2019-04-23T09:09:04.287Z,4.97
2019-04-23T09:19:04.057Z,4.80
2019-04-23T09:24:03.742Z,4.57
2019-04-23T09:29:04.598Z,5.40
2019-04-23T09:34:29.889Z,5.07
2019-04-23T09:39:43.096Z,4.80
2019-04-23T09:50:08.318Z,4.87
2019-04-23T09:55:24.106Z,5.30
2019-04-23T10:00:25.464Z,6.27
2019-04-23T10:05:07.386Z,4.70
2019-04-23T10:09:59.429Z,4.73
2019-04-23T10:15:09.974Z,4.80
2019-04-23T10:20:08.708Z,4.30
2019-04-23T10:25:12.878Z,4.17
2019-04-23T10:30:15.754Z,5.23
2019-04-23T10:35:29.177Z,3.87
2019-04-23T10:40:28.190Z,5.47
2019-04-23T10:46:08.018Z,5.40
2019-04-23T10:51:38.615Z,3.90
2019-04-23T10:56:39.738Z,4.00
2019-04-23T11:01:43.483Z,4.47
2019-04-23T11:11:52.562Z,4.05
2019-04-23T11:22:21.037Z,5.03
2019-04-23T11:27:07.854Z,4.03
2019-04-23T11:32:32.016Z,3.60
2019-04-23T11:37:24.969Z,4.10
2019-04-23T11:42:17.415Z,3.72
2019-04-23T11:48:01.823Z,3.60
2019-04-23T11:52:36.510Z,3.67
2019-04-23T12:02:59.106Z,4.13
2019-04-23T12:08:38.098Z,4.03
2019-04-23T12:14:02.407Z,3.62
2019-04-23T12:19:25.390Z,3.42
2019-04-23T12:24:24.761Z,3.58
2019-04-23T12:29:21.037Z,4.27
2019-04-23T12:34:30.059Z,3.20
2019-04-23T12:39:28.451Z,3.55
2019-04-23T12:44:30.646Z,3.30
2019-04-23T12:54:52.085Z,3.55
2019-04-23T12:59:44.312Z,4.75
2019-04-23T13:04:48.824Z,3.70
2019-04-23T13:15:05.844Z,3.87
2019-04-23T13:20:04.096Z,3.17
2019-04-23T13:25:28.314Z,3.12
2019-04-23T13:35:55.341Z,2.55
2019-04-23T13:40:40.702Z,2.80
2019-04-23T13:46:00.020Z,2.90
2019-04-23T13:55:44.434Z,2.92
2019-04-23T14:11:23.579Z,4.10
2019-04-23T14:16:32.704Z,3.72
2019-04-23T14:31:54.985Z,3.70
2019-04-23T14:36:47.269Z,4.33
2019-04-23T14:41:44.338Z,4.40
2019-04-23T14:46:58.682Z,3.00
2019-04-23T14:57:24.684Z,3.20
2019-04-23T15:02:28.748Z,3.65
2019-04-23T15:07:28.328Z,3.85
2019-04-23T15:17:45.131Z,3.65
2019-04-23T15:33:03.991Z,4.35
2019-04-23T15:43:02.504Z,4.12
2019-04-23T15:49:08.293Z,4.23
2019-04-23T16:04:14.916Z,3.27
2019-04-23T16:10:01.248Z,3.67
2019-04-23T16:15:07.850Z,3.22
2019-04-23T16:20:31.955Z,3.30
2019-04-23T16:36:54.817Z,3.10
2019-04-23T16:53:21.444Z,3.53
2019-04-23T17:03:54.063Z,3.83
2019-04-23T17:08:57.543Z,4.60
2019-04-23T17:19:16.239Z,3.70
2019-04-23T17:24:21.269Z,4.20
2019-04-23T17:29:51.049Z,3.57
2019-04-23T17:35:11.640Z,3.67
2019-04-23T17:45:54.771Z,3.37
2019-04-23T17:51:10.991Z,3.60
2019-04-23T17:56:18.448Z,3.50
2019-04-23T18:01:22.318Z,3.57
2019-04-23T18:11:23.303Z,3.00
2019-04-23T18:16:35.096Z,3.27
2019-04-23T18:22:04.054Z,3.73
2019-04-23T18:27:05.163Z,3.10
2019-04-23T18:32:35.364Z,3.13
2019-04-23T18:38:13.584Z,3.00
2019-04-23T18:43:07.339Z,3.00
2019-04-23T18:54:15.328Z,4.00
2019-04-23T18:59:39.302Z,3.70
2019-04-23T19:05:03.435Z,3.30
2019-04-23T19:15:26.574Z,3.50
2019-04-23T19:37:31.912Z,2.93
2019-04-23T19:42:17.639Z,3.20
2019-04-23T19:53:26.015Z,3.03
2019-04-23T19:58:31.049Z,2.90
2019-04-23T20:09:04.094Z,3.30
2019-04-23T20:35:15.829Z,2.60
2019-04-23T20:40:33.022Z,2.53
2019-04-23T20:45:33.333Z,2.70
2019-04-23T20:50:37.667Z,3.03
2019-04-23T20:55:58.673Z,2.80
2019-04-23T21:01:07.599Z,2.67
2019-04-23T21:06:07.144Z,3.10
2019-04-23T21:11:05.320Z,2.70
2019-04-23T21:16:13.165Z,3.10
2019-04-23T21:21:17.947Z,2.70
2019-04-23T21:26:16.766Z,2.47
2019-04-23T21:31:45.521Z,2.93
2019-04-23T21:36:46.034Z,3.37
2019-04-23T21:41:57.966Z,2.50
2019-04-23T21:52:05.082Z,2.87
2019-04-23T21:57:12.885Z,3.10
2019-04-23T22:02:14.976Z,2.90
2019-04-23T22:07:19.374Z,2.60
2019-04-23T22:12:23.498Z,3.13
2019-04-23T22:17:33.059Z,2.60
2019-04-23T22:22:41.947Z,2.57
2019-04-23T22:27:35.450Z,2.87
2019-04-23T22:32:49.658Z,2.60
2019-04-23T22:37:50.256Z,2.90
2019-04-23T22:47:54.984Z,3.80
2019-04-23T22:53:00.326Z,2.93
2019-04-23T22:58:04.444Z,2.50
2019-04-23T23:08:25.108Z,2.53
2019-04-23T23:13:35.769Z,2.63
2019-04-23T23:23:30.905Z,2.97
2019-04-23T23:28:40.945Z,2.63
2019-04-23T23:39:05.322Z,2.80
2019-04-23T23:44:07.890Z,2.60
2019-04-23T23:49:00.669Z,2.70
